createdAt,value
2017-07-30T00:00:34.046Z,26.3
2017-07-30T00:01:44.269Z,26.25
2017-07-30T00:02:53.866Z,26.28
2017-07-30T00:04:04.090Z,26.23
2017-07-30T00:05:14.024Z,26.18
2017-07-30T00:06:24.257Z,26.21
2017-07-30T00:07:34.164Z,26.25
2017-07-30T00:08:43.815Z,26.23
2017-07-30T00:09:53.875Z,26.25
2017-07-30T00:11:03.782Z,26.2
2017-07-30T00:12:13.411Z,26.21
2017-07-30T00:13:23.328Z,26.18
2017-07-30T00:14:33.244Z,26.2
2017-07-30T00:15:43.302Z,26.25
2017-07-30T00:16:53.522Z,26.26
2017-07-30T00:18:03.745Z,26.3
2017-07-30T00:19:13.683Z,26.3
2017-07-30T00:20:23.593Z,26.15
2017-07-30T00:21:33.663Z,26.29
2017-07-30T00:22:43.879Z,26.21
2017-07-30T00:23:54.459Z,26.25
2017-07-30T00:25:04.394Z,26.29
2017-07-30T00:26:14.004Z,26.17
2017-07-30T00:27:24.272Z,26.25
2017-07-30T00:28:34.486Z,26.12
2017-07-30T00:29:44.394Z,26.2
2017-07-30T00:30:54.306Z,26.2
2017-07-30T00:32:04.522Z,26.23
2017-07-30T00:33:14.276Z,26.21
2017-07-30T00:34:23.883Z,26.2
2017-07-30T00:35:33.483Z,26.28
2017-07-30T00:36:42.792Z,26.17
2017-07-30T00:37:52.714Z,26.12
2017-07-30T00:39:02.337Z,26.25
2017-07-30T00:40:12.550Z,26.2
2017-07-30T00:41:22.766Z,26.12
2017-07-30T00:42:32.985Z,26.18
2017-07-30T00:43:43.201Z,26.25
2017-07-30T00:44:53.414Z,26.2
2017-07-30T00:46:03.334Z,26.18
2017-07-30T00:47:12.933Z,26.1
2017-07-30T00:48:23.176Z,26.21
2017-07-30T00:49:33.087Z,26.18
2017-07-30T00:50:42.987Z,26.17
2017-07-30T00:51:52.593Z,26.23
2017-07-30T00:53:02.810Z,26.28
2017-07-30T00:54:12.425Z,26.21
2017-07-30T00:55:22.336Z,26.2
2017-07-30T00:56:32.249Z,26.18
2017-07-30T00:57:42.153Z,26.25
2017-07-30T00:58:52.396Z,26.18
2017-07-30T01:00:02.004Z,26.2
2017-07-30T01:01:11.616Z,26.2
2017-07-30T01:02:21.882Z,26.2
2017-07-30T01:03:31.497Z,26.21
2017-07-30T01:04:41.106Z,26.1
2017-07-30T01:05:51.027Z,26.1
2017-07-30T01:07:00.623Z,26.21
2017-07-30T01:08:10.382Z,26.09
2017-07-30T01:09:19.683Z,26.2
2017-07-30T01:10:29.298Z,26.07
2017-07-30T01:11:39.214Z,26.21
2017-07-30T01:12:48.823Z,26.17
2017-07-30T01:13:58.889Z,26.1
2017-07-30T01:15:08.495Z,26.2
2017-07-30T01:16:18.419Z,26.13
2017-07-30T01:17:28.633Z,26.09
2017-07-30T01:18:38.851Z,26.13
2017-07-30T01:19:48.923Z,26.23
2017-07-30T01:20:59.140Z,26.07
2017-07-30T01:22:09.050Z,26.06
2017-07-30T01:23:18.662Z,26.13
2017-07-30T01:24:28.876Z,26.12
2017-07-30T01:25:38.538Z,26.13
2017-07-30T01:26:48.445Z,26.09
2017-07-30T01:27:58.359Z,26.1
2017-07-30T01:29:08.267Z,26.12
2017-07-30T01:30:17.882Z,26.1
2017-07-30T01:31:28.098Z,26.1
2017-07-30T01:32:37.701Z,26.1
2017-07-30T01:33:47.312Z,26.15
2017-07-30T01:34:56.294Z,26.09
2017-07-30T01:36:05.898Z,26.09
2017-07-30T01:37:16.122Z,26.1
2017-07-30T01:38:26.328Z,26.09
2017-07-30T01:39:36.273Z,26.13
2017-07-30T01:40:46.189Z,26.1
2017-07-30T01:41:56.101Z,26.1
2017-07-30T01:43:06.159Z,26.1
2017-07-30T01:44:15.762Z,26.07
2017-07-30T01:45:25.668Z,26.12
2017-07-30T01:46:35.267Z,26.15
2017-07-30T01:47:45.478Z,26.1
2017-07-30T01:48:55.409Z,26.1
2017-07-30T01:50:05.017Z,26.1
2017-07-30T01:51:15.231Z,26.1
2017-07-30T01:52:25.454Z,26.12
2017-07-30T01:53:35.683Z,26.12
2017-07-30T01:54:45.768Z,26.1
2017-07-30T01:55:55.373Z,26.1
2017-07-30T01:57:05.300Z,26.1
2017-07-30T01:58:15.210Z,26.13
2017-07-30T01:59:25.116Z,26.09
2017-07-30T02:00:35.167Z,26.01
2017-07-30T02:01:45.075Z,26.02
2017-07-30T02:02:54.989Z,26.02
2017-07-30T02:04:04.287Z,26.12
2017-07-30T02:05:14.198Z,26.1
2017-07-30T02:06:24.401Z,26.12
2017-07-30T02:07:34.616Z,25.98
2017-07-30T02:08:44.534Z,26.01
2017-07-30T02:09:54.446Z,26.01
2017-07-30T02:11:04.048Z,25.97
2017-07-30T02:12:14.358Z,26.1
2017-07-30T02:13:24.285Z,26.12
2017-07-30T02:14:34.189Z,26.1
2017-07-30T02:15:44.093Z,25.99
2017-07-30T02:16:53.391Z,26.05
2017-07-30T02:18:03.603Z,26.1
2017-07-30T02:19:13.520Z,25.99
2017-07-30T02:20:23.747Z,26.09
2017-07-30T02:21:33.663Z,26.01
2017-07-30T02:22:43.887Z,26.06
2017-07-30T02:23:53.549Z,26.09
2017-07-30T02:25:03.769Z,26.01
2017-07-30T02:26:13.993Z,26.01
2017-07-30T02:27:24.207Z,26.05
2017-07-30T02:28:34.117Z,26.01
2017-07-30T02:29:43.399Z,26.01
2017-07-30T02:30:53.306Z,25.98
2017-07-30T02:32:03.257Z,25.99
2017-07-30T02:33:13.468Z,25.98
2017-07-30T02:34:23.386Z,25.97
2017-07-30T02:35:33.395Z,26.06
2017-07-30T02:36:43.301Z,25.98
2017-07-30T02:37:53.209Z,25.98
2017-07-30T02:39:03.439Z,25.95
2017-07-30T02:40:13.343Z,25.98
2017-07-30T02:41:23.712Z,25.98
2017-07-30T02:42:33.934Z,26.01
2017-07-30T02:43:44.172Z,26.01
2017-07-30T02:44:54.099Z,25.98
2017-07-30T02:46:03.704Z,26.05
2017-07-30T02:47:13.318Z,25.97
2017-07-30T02:48:23.247Z,25.95
2017-07-30T02:49:32.554Z,26.01
2017-07-30T02:50:42.777Z,26.05
2017-07-30T02:51:52.395Z,26.02
2017-07-30T02:53:02.457Z,25.97
2017-07-30T02:54:12.060Z,25.99
2017-07-30T02:55:22.282Z,26.01
2017-07-30T02:56:32.511Z,25.99
2017-07-30T02:57:42.412Z,26.06
2017-07-30T02:58:52.799Z,25.99
2017-07-30T03:00:03.026Z,26.01
2017-07-30T03:01:12.629Z,25.94
2017-07-30T03:02:22.846Z,25.92
2017-07-30T03:03:33.063Z,25.97
2017-07-30T03:04:43.021Z,26.12
2017-07-30T03:05:52.940Z,25.94
2017-07-30T03:07:03.155Z,25.94
2017-07-30T03:08:13.381Z,25.98
2017-07-30T03:09:23.601Z,26.05
2017-07-30T03:10:33.975Z,25.99
2017-07-30T03:11:44.191Z,26.06
2017-07-30T03:12:54.099Z,25.99
2017-07-30T03:14:03.704Z,26.06
2017-07-30T03:15:13.614Z,25.99
2017-07-30T03:16:22.955Z,25.99
2017-07-30T03:17:32.857Z,25.99
2017-07-30T03:18:42.799Z,25.92
2017-07-30T03:19:53.006Z,26.06
2017-07-30T03:21:03.224Z,25.97
2017-07-30T03:22:13.451Z,25.95
2017-07-30T03:23:23.686Z,26.06
2017-07-30T03:24:33.904Z,26.07
2017-07-30T03:25:44.111Z,26.02
2017-07-30T03:26:53.714Z,25.95
2017-07-30T03:28:04.084Z,26.01
2017-07-30T03:29:14.003Z,25.94
2017-07-30T03:30:23.614Z,26.05
2017-07-30T03:31:33.214Z,25.98
2017-07-30T03:32:43.128Z,25.97
2017-07-30T03:33:52.735Z,26.05
2017-07-30T03:35:02.659Z,26.09
2017-07-30T03:36:12.568Z,25.94
2017-07-30T03:37:22.165Z,25.92
2017-07-30T03:38:32.386Z,26.05
2017-07-30T03:39:42.446Z,25.95
2017-07-30T03:40:52.367Z,25.95
2017-07-30T03:42:02.290Z,25.94
2017-07-30T03:43:11.893Z,26.01
2017-07-30T03:44:22.156Z,25.99
2017-07-30T03:45:32.483Z,25.91
2017-07-30T03:46:42.390Z,25.98
2017-07-30T03:47:52.305Z,25.95
2017-07-30T03:49:02.224Z,25.91
2017-07-30T03:50:12.445Z,25.92
2017-07-30T03:51:22.373Z,25.95
2017-07-30T03:52:32.362Z,25.95
2017-07-30T03:53:42.275Z,25.95
2017-07-30T03:54:52.490Z,25.95
2017-07-30T03:56:02.086Z,25.94
2017-07-30T03:57:11.533Z,25.91
2017-07-30T03:58:21.452Z,25.94
2017-07-30T03:59:31.669Z,25.95
2017-07-30T04:00:41.290Z,26.01
2017-07-30T04:01:51.206Z,25.97
2017-07-30T04:03:01.218Z,25.97
2017-07-30T04:04:10.831Z,25.97
2017-07-30T04:05:20.741Z,25.98
2017-07-30T04:06:30.671Z,25.97
2017-07-30T04:07:39.988Z,25.97
2017-07-30T04:08:50.207Z,25.97
2017-07-30T04:10:00.130Z,25.98
2017-07-30T04:11:10.037Z,25.95
2017-07-30T04:12:19.960Z,25.95
2017-07-30T04:13:30.193Z,25.97
2017-07-30T04:14:40.414Z,25.92
2017-07-30T04:15:50.639Z,25.99
2017-07-30T04:16:59.950Z,25.97
2017-07-30T04:18:09.555Z,25.99
2017-07-30T04:19:19.481Z,25.95
2017-07-30T04:20:29.801Z,25.92
2017-07-30T04:21:40.020Z,25.92
2017-07-30T04:22:49.959Z,25.9
2017-07-30T04:23:59.876Z,25.94
2017-07-30T04:25:09.787Z,25.94
2017-07-30T04:26:19.804Z,25.9
2017-07-30T04:27:30.031Z,25.97
2017-07-30T04:28:39.349Z,25.9
2017-07-30T04:29:48.663Z,25.94
2017-07-30T04:30:58.876Z,25.97
2017-07-30T04:32:08.959Z,25.88
2017-07-30T04:33:18.868Z,25.9
2017-07-30T04:34:28.797Z,25.91
2017-07-30T04:35:38.404Z,25.88
2017-07-30T04:36:48.319Z,25.92
2017-07-30T04:37:58.686Z,25.92
2017-07-30T04:39:08.305Z,25.9
2017-07-30T04:40:17.917Z,25.88
2017-07-30T04:41:28.152Z,25.91
2017-07-30T04:42:38.386Z,25.91
2017-07-30T04:43:48.464Z,25.91
2017-07-30T04:44:58.101Z,25.88
2017-07-30T04:46:08.018Z,25.95
2017-07-30T04:47:17.922Z,25.88
2017-07-30T04:48:27.536Z,25.87
2017-07-30T04:49:37.595Z,25.88
2017-07-30T04:50:47.507Z,25.9
2017-07-30T04:51:58.095Z,25.88
2017-07-30T04:53:08.312Z,25.88
2017-07-30T04:54:18.235Z,25.91
2017-07-30T04:55:27.998Z,25.88
2017-07-30T04:56:38.216Z,25.9
2017-07-30T04:57:48.152Z,25.91
2017-07-30T04:58:58.384Z,25.97
2017-07-30T05:00:07.999Z,25.88
2017-07-30T05:01:17.928Z,25.88
2017-07-30T05:02:28.157Z,25.97
2017-07-30T05:03:38.384Z,25.95
2017-07-30T05:04:48.003Z,25.95
2017-07-30T05:05:57.914Z,25.97
2017-07-30T05:07:07.981Z,25.94
2017-07-30T05:08:17.282Z,25.94
2017-07-30T05:09:27.190Z,26.06
2017-07-30T05:10:36.787Z,26.02
2017-07-30T05:11:46.693Z,26.01
2017-07-30T05:12:56.150Z,26.01
2017-07-30T05:14:05.768Z,25.94
2017-07-30T05:15:15.976Z,26.1
2017-07-30T05:16:25.597Z,26.17
2017-07-30T05:17:35.830Z,26.28
2017-07-30T05:18:45.798Z,26.23
2017-07-30T05:19:56.021Z,26.26
2017-07-30T05:21:06.248Z,26.44
2017-07-30T05:22:15.864Z,26.48
2017-07-30T05:23:25.776Z,26.47
2017-07-30T05:24:35.807Z,26.55
2017-07-30T05:25:45.751Z,26.63
2017-07-30T05:26:55.661Z,26.67
2017-07-30T05:28:05.890Z,26.65
2017-07-30T05:29:16.137Z,26.81
2017-07-30T05:30:26.531Z,26.76
2017-07-30T05:31:35.829Z,26.81
2017-07-30T05:32:45.750Z,26.82
2017-07-30T05:33:55.075Z,26.95
2017-07-30T05:35:04.382Z,27.02
2017-07-30T05:36:14.646Z,27.04
2017-07-30T05:37:24.564Z,27.18
2017-07-30T05:38:34.806Z,27.22
2017-07-30T05:39:44.426Z,27.36
2017-07-30T05:40:54.335Z,27.25
2017-07-30T05:42:04.911Z,27.22
2017-07-30T05:43:14.228Z,27.36
2017-07-30T05:44:24.165Z,27.44
2017-07-30T05:45:34.404Z,27.54
2017-07-30T05:46:44.017Z,27.57
2017-07-30T05:47:54.418Z,27.6
2017-07-30T05:49:04.340Z,27.67
2017-07-30T05:50:13.659Z,27.69
2017-07-30T05:51:23.569Z,27.78
2017-07-30T05:52:33.791Z,27.87
2017-07-30T05:53:43.702Z,27.78
2017-07-30T05:54:53.323Z,27.94
2017-07-30T05:56:02.943Z,27.97
2017-07-30T05:57:13.180Z,28.02
2017-07-30T05:58:23.119Z,27.99
2017-07-30T05:59:33.334Z,28.14
2017-07-30T06:00:44.870Z,28.14
2017-07-30T06:01:54.500Z,28.15
2017-07-30T06:03:04.738Z,28.3
2017-07-30T06:04:14.380Z,28.33
2017-07-30T06:05:24.840Z,28.37
2017-07-30T06:06:35.143Z,28.46
2017-07-30T06:07:45.376Z,28.41
2017-07-30T06:08:55.606Z,28.43
2017-07-30T06:10:05.536Z,28.54
2017-07-30T06:11:15.301Z,28.52
2017-07-30T06:12:25.212Z,28.4
2017-07-30T06:13:35.132Z,28.43
2017-07-30T06:14:45.369Z,28.43
2017-07-30T06:15:54.985Z,28.55
2017-07-30T06:17:05.371Z,28.41
2017-07-30T06:18:15.325Z,28.49
2017-07-30T06:19:25.264Z,28.51
2017-07-30T06:20:35.197Z,28.43
2017-07-30T06:21:45.448Z,28.58
2017-07-30T06:22:55.494Z,28.56
2017-07-30T06:24:05.470Z,28.56
2017-07-30T06:25:15.745Z,28.54
2017-07-30T06:26:25.693Z,28.54
2017-07-30T06:27:35.632Z,28.54
2017-07-30T06:28:45.625Z,28.59
2017-07-30T06:29:55.560Z,28.61
2017-07-30T06:31:05.788Z,28.7
2017-07-30T06:32:15.710Z,28.67
2017-07-30T06:33:25.620Z,28.67
2017-07-30T06:34:35.280Z,28.66
2017-07-30T06:35:45.501Z,28.71
2017-07-30T06:36:55.113Z,28.68
2017-07-30T06:38:04.719Z,28.61
2017-07-30T06:39:14.031Z,28.58
2017-07-30T06:40:24.103Z,28.56
2017-07-30T06:41:33.097Z,28.52
2017-07-30T06:42:42.702Z,28.43
2017-07-30T06:43:52.064Z,28.4
2017-07-30T06:45:01.994Z,28.39
2017-07-30T06:46:11.133Z,28.37
2017-07-30T06:47:20.745Z,28.31
2017-07-30T06:48:30.863Z,28.25
2017-07-30T06:49:40.466Z,28.22
2017-07-30T06:50:50.386Z,28.21
2017-07-30T06:52:00.802Z,28.15
2017-07-30T06:53:10.416Z,28.09
2017-07-30T06:54:20.640Z,28.12
2017-07-30T06:55:30.854Z,28.04
2017-07-30T06:56:40.765Z,28.12
2017-07-30T06:57:50.729Z,28.07
2017-07-30T06:59:00.654Z,28.03
2017-07-30T07:00:09.654Z,28.02
2017-07-30T07:01:19.266Z,27.94
2017-07-30T07:02:29.475Z,27.99
2017-07-30T07:03:39.515Z,28
2017-07-30T07:04:49.422Z,27.97
2017-07-30T07:05:59.640Z,27.9
2017-07-30T07:07:09.578Z,27.97
2017-07-30T07:08:19.490Z,27.99
2017-07-30T07:09:30.006Z,28.04
2017-07-30T07:10:40.224Z,28.02
2017-07-30T07:11:49.522Z,28.17
2017-07-30T07:12:59.135Z,28.29
2017-07-30T07:14:09.365Z,28.48
2017-07-30T07:15:19.280Z,28.76
2017-07-30T07:16:29.508Z,29.18
2017-07-30T07:17:39.121Z,29.64
2017-07-30T07:18:49.040Z,29.95
2017-07-30T07:19:58.655Z,30.35
2017-07-30T07:21:08.875Z,30.55
2017-07-30T07:22:19.102Z,30.82
2017-07-30T07:23:29.022Z,30.94
2017-07-30T07:24:38.953Z,31.07
2017-07-30T07:25:48.865Z,31.16
2017-07-30T07:26:58.517Z,31.12
2017-07-30T07:28:08.439Z,31.02
2017-07-30T07:29:17.742Z,31.04
2017-07-30T07:30:27.964Z,30.8
2017-07-30T07:31:38.191Z,30.86
2017-07-30T07:32:48.145Z,30.79
2017-07-30T07:33:58.054Z,30.72
2017-07-30T07:35:08.293Z,30.72
2017-07-30T07:36:18.206Z,30.86
2017-07-30T07:37:27.830Z,30.91
2017-07-30T07:38:37.899Z,30.91
2017-07-30T07:39:48.124Z,31.04
2017-07-30T07:40:58.345Z,30.97
2017-07-30T07:42:08.565Z,30.89
2017-07-30T07:43:18.793Z,30.88
2017-07-30T07:44:28.716Z,30.77
2017-07-30T07:45:38.936Z,30.7
2017-07-30T07:46:49.150Z,30.58
2017-07-30T07:47:58.757Z,30.55
2017-07-30T07:49:08.684Z,30.45
2017-07-30T07:50:18.931Z,30.42
2017-07-30T07:51:28.538Z,30.45
2017-07-30T07:52:38.147Z,30.6
2017-07-30T07:53:48.069Z,30.89
2017-07-30T07:54:57.985Z,31.23
2017-07-30T07:56:07.280Z,31.5
2017-07-30T07:57:17.185Z,31.88
2017-07-30T07:58:27.409Z,32.13
2017-07-30T07:59:37.015Z,32.22
2017-07-30T08:00:46.614Z,32.43
2017-07-30T08:01:56.990Z,32.55
2017-07-30T08:03:07.224Z,32.78
2017-07-30T08:04:17.152Z,32.94
2017-07-30T08:05:27.075Z,33.03
2017-07-30T08:06:37.316Z,33.38
2017-07-30T08:07:47.046Z,33.78
2017-07-30T08:08:56.972Z,34.24
2017-07-30T08:10:06.592Z,34.62
2017-07-30T08:11:16.822Z,34.89
2017-07-30T08:12:26.734Z,35.21
2017-07-30T08:13:36.136Z,35.47
2017-07-30T08:14:46.367Z,35.56
2017-07-30T08:15:56.607Z,35.82
2017-07-30T08:17:06.226Z,35.92
2017-07-30T08:18:16.450Z,36.15
2017-07-30T08:19:26.687Z,36.08
2017-07-30T08:20:36.598Z,36.28
2017-07-30T08:21:45.899Z,36.34
2017-07-30T08:22:55.813Z,36.41
2017-07-30T08:24:05.110Z,36.35
2017-07-30T08:25:15.020Z,36.37
2017-07-30T08:26:24.649Z,36
2017-07-30T08:27:34.596Z,35.81
2017-07-30T08:28:44.831Z,35.8
2017-07-30T08:29:54.440Z,35.92
2017-07-30T08:31:04.660Z,36.09
2017-07-30T08:32:13.647Z,35.94
2017-07-30T08:33:23.245Z,35.71
2017-07-30T08:34:33.469Z,35.37
2017-07-30T08:35:43.088Z,35.26
2017-07-30T08:36:53.320Z,35.4
2017-07-30T08:38:03.543Z,35.63
2017-07-30T08:39:13.154Z,36
2017-07-30T08:40:23.624Z,36.03
2017-07-30T08:41:33.555Z,36.07
2017-07-30T08:42:43.860Z,36.03
2017-07-30T08:43:53.780Z,36.03
2017-07-30T08:45:03.385Z,35.92
2017-07-30T08:46:13.318Z,35.8
2017-07-30T08:47:23.540Z,35.93
2017-07-30T08:48:33.514Z,36.08
2017-07-30T08:49:43.507Z,36.23
2017-07-30T08:50:53.753Z,36.41
2017-07-30T08:52:03.977Z,36.65
2017-07-30T08:53:14.204Z,36.76
2017-07-30T08:54:24.215Z,36.9
2017-07-30T08:55:34.130Z,36.88
2017-07-30T08:56:44.042Z,36.65
2017-07-30T08:57:53.346Z,36.35
2017-07-30T08:59:03.568Z,36
2017-07-30T09:00:13.057Z,35.59
2017-07-30T09:01:22.681Z,35.02
2017-07-30T09:02:32.610Z,34.66
2017-07-30T09:03:42.534Z,34.27
2017-07-30T09:04:52.464Z,33.84
2017-07-30T09:06:02.531Z,33.49
2017-07-30T09:07:12.146Z,33.21
2017-07-30T09:08:22.063Z,32.82
2017-07-30T09:09:31.677Z,32.65
2017-07-30T09:10:40.989Z,32.43
2017-07-30T09:11:51.026Z,32.23
2017-07-30T09:13:00.962Z,31.95
2017-07-30T09:14:10.874Z,31.8
2017-07-30T09:15:20.500Z,31.62
2017-07-30T09:16:30.723Z,31.48
2017-07-30T09:17:40.943Z,31.26
2017-07-30T09:18:51.171Z,31.17
2017-07-30T09:20:01.112Z,30.97
2017-07-30T09:21:11.043Z,30.88
2017-07-30T09:22:20.952Z,30.8
2017-07-30T09:23:31.179Z,30.58
2017-07-30T09:24:40.800Z,30.53
2017-07-30T09:25:50.712Z,30.38
2017-07-30T09:27:00.326Z,30.29
2017-07-30T09:28:10.561Z,30.22
2017-07-30T09:29:20.626Z,30.16
2017-07-30T09:30:30.545Z,30.04
2017-07-30T09:31:40.456Z,29.95
2017-07-30T09:32:50.086Z,29.9
2017-07-30T09:34:00.319Z,29.78
2017-07-30T09:35:10.700Z,29.74
2017-07-30T09:36:20.924Z,29.7
2017-07-30T09:37:31.159Z,29.73
2017-07-30T09:38:40.779Z,29.58
2017-07-30T09:39:50.397Z,29.63
2017-07-30T09:40:59.485Z,29.51
2017-07-30T09:42:09.397Z,29.43
2017-07-30T09:43:19.009Z,29.37
2017-07-30T09:44:28.934Z,29.36
2017-07-30T09:45:38.553Z,29.36
2017-07-30T09:46:48.165Z,29.37
2017-07-30T09:47:58.413Z,29.27
2017-07-30T09:49:08.633Z,29.26
2017-07-30T09:50:18.554Z,29.26
2017-07-30T09:51:28.158Z,29.21
2017-07-30T09:52:38.082Z,29.24
2017-07-30T09:53:47.692Z,29.11
2017-07-30T09:54:57.929Z,29.04
2017-07-30T09:56:08.150Z,29.05
2017-07-30T09:57:18.070Z,28.96
2017-07-30T09:58:28.038Z,29.06
2017-07-30T09:59:38.300Z,29
2017-07-30T10:00:48.223Z,28.96
2017-07-30T10:01:58.462Z,29.02
2017-07-30T10:03:08.093Z,28.98
2017-07-30T10:04:18.666Z,28.9
2017-07-30T10:05:28.587Z,28.88
2017-07-30T10:06:38.191Z,28.92
2017-07-30T10:07:48.411Z,28.89
2017-07-30T10:08:58.629Z,28.81
2017-07-30T10:10:08.544Z,28.89
2017-07-30T10:11:18.467Z,28.8
2017-07-30T10:12:28.401Z,28.78
2017-07-30T10:13:38.313Z,28.77
2017-07-30T10:14:48.530Z,28.76
2017-07-30T10:15:58.444Z,28.73
2017-07-30T10:17:09.050Z,28.81
2017-07-30T10:18:18.965Z,28.74
2017-07-30T10:19:28.873Z,28.76
2017-07-30T10:20:38.813Z,28.77
2017-07-30T10:21:48.429Z,28.68
2017-07-30T10:22:58.669Z,28.71
2017-07-30T10:24:08.268Z,28.7
2017-07-30T10:25:18.183Z,28.64
2017-07-30T10:26:28.431Z,28.7
2017-07-30T10:27:38.510Z,28.66
2017-07-30T10:28:48.415Z,28.62
2017-07-30T10:29:58.334Z,28.64
2017-07-30T10:31:07.956Z,28.58
2017-07-30T10:32:18.176Z,28.58
2017-07-30T10:33:28.383Z,28.59
2017-07-30T10:34:38.298Z,28.59
2017-07-30T10:35:47.917Z,28.7
2017-07-30T10:36:57.844Z,28.61
2017-07-30T10:38:07.448Z,28.54
2017-07-30T10:39:17.254Z,28.58
2017-07-30T10:40:27.170Z,28.58
2017-07-30T10:41:37.391Z,28.59
2017-07-30T10:42:46.696Z,28.55
2017-07-30T10:43:56.613Z,28.55
2017-07-30T10:45:06.676Z,28.43
2017-07-30T10:46:16.277Z,28.55
2017-07-30T10:47:25.912Z,28.49
2017-07-30T10:48:35.827Z,28.59
2017-07-30T10:49:46.050Z,28.49
2017-07-30T10:50:56.112Z,28.61
2017-07-30T10:52:06.349Z,28.46
2017-07-30T10:53:16.576Z,28.41
2017-07-30T10:54:26.804Z,28.48
2017-07-30T10:55:36.721Z,28.51
2017-07-30T10:56:46.813Z,28.54
2017-07-30T10:57:55.807Z,28.41
2017-07-30T10:59:05.716Z,28.51
2017-07-30T11:00:15.641Z,28.33
2017-07-30T11:01:25.861Z,28.48
2017-07-30T11:02:35.477Z,28.46
2017-07-30T11:03:45.393Z,28.4
2017-07-30T11:04:55.324Z,28.36
2017-07-30T11:06:05.235Z,28.33
2017-07-30T11:07:15.458Z,28.31
2017-07-30T11:08:25.787Z,28.33
2017-07-30T11:09:35.716Z,28.33
2017-07-30T11:10:45.318Z,28.27
2017-07-30T11:11:54.915Z,28.27
2017-07-30T11:13:04.525Z,28.29
2017-07-30T11:14:14.582Z,28.27
2017-07-30T11:15:24.216Z,28.22
2017-07-30T11:16:34.151Z,28.24
2017-07-30T11:17:44.066Z,28.29
2017-07-30T11:18:53.982Z,28.22
2017-07-30T11:20:04.300Z,28.18
2017-07-30T11:21:13.596Z,28.22
2017-07-30T11:22:23.205Z,28.09
2017-07-30T11:23:32.814Z,28.12
2017-07-30T11:24:42.427Z,28.09
2017-07-30T11:25:52.397Z,28.11
2017-07-30T11:27:02.307Z,28.15
2017-07-30T11:28:12.228Z,28.15
2017-07-30T11:29:22.159Z,28.09
2017-07-30T11:30:32.069Z,28.12
2017-07-30T11:31:41.469Z,28.07
2017-07-30T11:32:51.691Z,28.11
2017-07-30T11:34:01.899Z,28.14
2017-07-30T11:35:11.817Z,28.06
2017-07-30T11:36:21.755Z,28.09
2017-07-30T11:37:31.975Z,28.09
2017-07-30T11:38:42.193Z,28.09
2017-07-30T11:39:52.111Z,28.07
2017-07-30T11:41:02.027Z,28.09
2017-07-30T11:42:11.641Z,28.07
2017-07-30T11:43:22.015Z,28.07
2017-07-30T11:44:31.933Z,28.04
2017-07-30T11:45:41.555Z,28.09
2017-07-30T11:46:51.477Z,28.04
2017-07-30T11:48:01.385Z,28.14
2017-07-30T11:49:11.612Z,28.04
2017-07-30T11:50:21.525Z,28
2017-07-30T11:51:31.453Z,28.11
2017-07-30T11:52:41.366Z,27.99
2017-07-30T11:53:50.981Z,28.11
2017-07-30T11:55:01.221Z,28.11
2017-07-30T11:56:11.158Z,28.04
2017-07-30T11:57:21.391Z,28.06
2017-07-30T11:58:31.016Z,28.06
2017-07-30T11:59:40.631Z,28.03
2017-07-30T12:00:51.010Z,27.93
2017-07-30T12:02:00.617Z,27.97
2017-07-30T12:03:10.560Z,28.03
2017-07-30T12:04:20.477Z,28.02
2017-07-30T12:05:30.767Z,27.93
2017-07-30T12:06:41.153Z,27.99
2017-07-30T12:07:51.078Z,27.94
2017-07-30T12:09:01.297Z,27.99
2017-07-30T12:10:11.520Z,27.99
2017-07-30T12:11:21.422Z,28
2017-07-30T12:12:31.482Z,27.99
2017-07-30T12:13:41.391Z,27.96
2017-07-30T12:14:51.625Z,28
2017-07-30T12:16:01.548Z,27.99
2017-07-30T12:17:11.464Z,28
2017-07-30T12:18:21.845Z,28.02
2017-07-30T12:19:31.464Z,27.92
2017-07-30T12:20:41.705Z,27.88
2017-07-30T12:21:51.961Z,27.88
2017-07-30T12:23:01.927Z,27.94
2017-07-30T12:24:11.903Z,27.97
2017-07-30T12:25:21.222Z,27.94
2017-07-30T12:26:31.138Z,27.93
2017-07-30T12:27:41.377Z,27.94
2017-07-30T12:28:51.647Z,27.88
2017-07-30T12:30:01.853Z,27.87
2017-07-30T12:31:11.486Z,27.85
2017-07-30T12:32:21.100Z,27.82
2017-07-30T12:33:31.014Z,27.88
2017-07-30T12:34:40.951Z,27.84
2017-07-30T12:35:50.705Z,27.92
2017-07-30T12:37:00.938Z,27.88
2017-07-30T12:38:10.562Z,27.82
2017-07-30T12:39:19.865Z,27.79
2017-07-30T12:40:29.793Z,27.82
2017-07-30T12:41:40.322Z,27.79
2017-07-30T12:42:49.942Z,27.81
2017-07-30T12:43:59.868Z,27.77
2017-07-30T12:45:09.776Z,27.79
2017-07-30T12:46:20.002Z,27.82
2017-07-30T12:47:29.993Z,27.79
2017-07-30T12:48:39.608Z,27.82
2017-07-30T12:49:49.212Z,27.78
2017-07-30T12:50:59.453Z,27.77
2017-07-30T12:52:09.076Z,27.84
2017-07-30T12:53:19.001Z,27.75
2017-07-30T12:54:28.341Z,27.87
2017-07-30T12:55:37.950Z,27.79
2017-07-30T12:56:47.564Z,27.82
2017-07-30T12:57:57.816Z,27.82
2017-07-30T12:59:07.474Z,27.84
2017-07-30T13:00:17.705Z,27.85
2017-07-30T13:01:27.662Z,27.96
2017-07-30T13:02:37.622Z,27.88
2017-07-30T13:03:47.536Z,27.94
2017-07-30T13:04:57.301Z,27.97
2017-07-30T13:06:06.626Z,27.99
2017-07-30T13:07:16.542Z,27.87
2017-07-30T13:08:26.461Z,27.88
2017-07-30T13:09:36.385Z,27.99
2017-07-30T13:10:46.444Z,27.99
2017-07-30T13:11:56.369Z,28.07
2017-07-30T13:13:05.993Z,28.02
2017-07-30T13:14:15.912Z,28.07
2017-07-30T13:15:25.835Z,28.07
2017-07-30T13:16:36.162Z,28.07
2017-07-30T13:17:45.831Z,28.18
2017-07-30T13:18:55.752Z,28.18
2017-07-30T13:20:05.980Z,28.12
2017-07-30T13:21:15.591Z,28.14
2017-07-30T13:22:25.051Z,28.14
2017-07-30T13:23:35.860Z,28.18
2017-07-30T13:24:45.865Z,28.21
2017-07-30T13:25:56.090Z,28.12
2017-07-30T13:27:05.393Z,28.22
2017-07-30T13:28:14.793Z,28.21
2017-07-30T13:29:24.120Z,28.19
2017-07-30T13:30:33.735Z,28.15
2017-07-30T13:31:43.659Z,28.15
2017-07-30T13:32:53.880Z,28.12
2017-07-30T13:34:03.795Z,28.09
2017-07-30T13:35:13.716Z,28.07
2017-07-30T13:36:23.046Z,28.09
2017-07-30T13:37:33.288Z,28.12
2017-07-30T13:38:43.211Z,28.09
2017-07-30T13:39:53.595Z,28.02
2017-07-30T13:41:03.562Z,28.12
2017-07-30T13:42:13.837Z,28
2017-07-30T13:43:23.755Z,28.14
2017-07-30T13:44:33.426Z,28.04
2017-07-30T13:45:43.090Z,28.11
2017-07-30T13:46:53.330Z,28.04
2017-07-30T13:48:03.569Z,28.06
2017-07-30T13:49:13.202Z,28.03
2017-07-30T13:50:22.500Z,28.03
2017-07-30T13:51:32.535Z,28.07
2017-07-30T13:52:42.146Z,28.07
2017-07-30T13:53:52.401Z,27.99
2017-07-30T13:55:02.307Z,28.03
2017-07-30T13:56:12.291Z,28.06
2017-07-30T13:57:22.890Z,28.02
2017-07-30T13:58:33.130Z,28.03
2017-07-30T13:59:43.396Z,27.99
2017-07-30T14:00:53.341Z,28.04
2017-07-30T14:02:02.959Z,28.04
2017-07-30T14:03:13.169Z,28.07
2017-07-30T14:04:23.087Z,28.03
2017-07-30T14:05:33.004Z,28.11
2017-07-30T14:06:42.623Z,28.11
2017-07-30T14:07:52.538Z,28.18
2017-07-30T14:09:02.820Z,28.06
2017-07-30T14:10:12.739Z,28.11
2017-07-30T14:11:22.664Z,28.07
2017-07-30T14:12:32.584Z,28.11
2017-07-30T14:13:42.866Z,28.12
2017-07-30T14:14:52.939Z,28.12
2017-07-30T14:16:03.170Z,28.15
2017-07-30T14:17:14.025Z,28.22
2017-07-30T14:18:24.859Z,28.19
2017-07-30T14:19:34.540Z,28.21
2017-07-30T14:20:44.772Z,28.21
2017-07-30T14:21:55.273Z,28.15
2017-07-30T14:23:05.180Z,28.17
2017-07-30T14:24:15.135Z,28.18
2017-07-30T14:25:25.058Z,28.24
2017-07-30T14:26:35.905Z,28.21
2017-07-30T14:27:45.948Z,28.22
2017-07-30T14:28:55.865Z,28.17
2017-07-30T14:30:05.483Z,28.25
2017-07-30T14:31:15.100Z,28.25
2017-07-30T14:32:25.024Z,28.22
2017-07-30T14:33:34.945Z,28.21
2017-07-30T14:34:44.866Z,28.24
2017-07-30T14:35:55.121Z,28.19
2017-07-30T14:37:05.047Z,28.21
2017-07-30T14:38:14.775Z,28.19
2017-07-30T14:39:25.002Z,28.25
2017-07-30T14:40:34.631Z,28.25
2017-07-30T14:41:43.952Z,28.3
2017-07-30T14:42:53.652Z,28.27
2017-07-30T14:44:04.010Z,28.34
2017-07-30T14:45:14.278Z,28.31
2017-07-30T14:46:24.215Z,28.27
2017-07-30T14:47:34.137Z,28.29
2017-07-30T14:48:43.767Z,28.27
2017-07-30T14:49:54.144Z,28.3
2017-07-30T14:51:04.062Z,28.3
2017-07-30T14:52:13.684Z,28.24
2017-07-30T14:53:23.297Z,28.3
2017-07-30T14:54:32.908Z,28.37
2017-07-30T14:55:43.385Z,28.3
2017-07-30T14:56:53.617Z,28.3
2017-07-30T14:58:02.943Z,28.31
2017-07-30T14:59:13.178Z,28.31
2017-07-30T15:00:23.418Z,28.25
2017-07-30T15:01:33.353Z,28.19
2017-07-30T15:02:43.296Z,28.27
2017-07-30T15:03:52.916Z,28.22
2017-07-30T15:05:02.246Z,28.21